Strait of Georgia - north of Nanaimo: Past 24 Hour Conditions

 

Victoria Int'l Airport

03:00 AM PDT 24 October 2014
This table is a summary of hourly weather conditions for the past 24 hours.
Date / Time
(PDT)
Wind(knots) Conditions Visibility(km) Pressure(kPa) Air tempC) Relative humidity(%) Dew pointC)
24 October 2014
3:00 WSW 4 Mostly Cloudy 32 101.6 9 95 8
2:00 SW 3 Mostly Cloudy 32 101.6 9 96 8
1:00 N 1 Mostly Cloudy 32 101.6 9 95 8
0:00 SSW 2 Mostly Cloudy 48 101.6 9 94 8
23 October 2014
23:00 W 3 Partly Cloudy 48 101.5 7 95 6
22:00 S 5 Partly Cloudy 48 101.4 8 87 6
21:00 WSW 3 Mostly Cloudy 48 101.4 8 96 7
20:00 W 2 Partly Cloudy 48 101.3 8 93 7
19:00 ESE 2 Partly Cloudy 48 101.2 10 84 8
18:00 E 2 Mostly Cloudy 48 101.1 10 83 7
17:00 WNW 2 Mostly Cloudy 48 101.0 11 78 8
16:00 SW 3 Mostly Cloudy 48 101.0 10 83 7
15:00 SSW 12 gust 19 Mostly Cloudy 48 100.9 13 64 7
14:00 SSW 10 gust 17 Partly Cloudy 48 100.8 14 68 8
13:00 S 13 Mostly Cloudy 48 100.7 14 73 9
12:00 SE 10 Light Rain 24 100.7 12 90 10
11:00 S 10 Mostly Cloudy 24 100.6 11 88 9
10:00 N 4 Light Rain 24 100.6 10 95 9
9:00 WNW 5 Rain 8 100.6 9 92 8
8:00 ENE 3 Light Rain 10 100.5 10 97 10
7:00 ESE 3 Light Rain 16 100.5 11 92 9
6:00 NNE 2 Light Rain 24 100.5 10 94 9
5:00 E 3 Light Rain 48 100.4 11 91 9
4:00 SE 8 Mostly Cloudy 48 100.5 10 93 9
3:00 SSW 3 Partly Cloudy 48 100.5 9 91 7
 
Map of Pacific - Georgia Basin marine weather areas Tsawwassen Ferry Terminal Sentry Shoal - 46131 Halibut Bank - 46146 La Perouse Bank - 46206 Discovery Island Esquimalt Harbour Kelp Reefs Malahat Race Rocks Lightstation Saturna Island Sheringham Point University of Victoria Victoria Gonzales Victoria Int'l Airport Ballenas Islands Campbell River Airport Comox Airport Entrance Island Fanny Island Nanaimo Airport Sisters Islets Estevan Point Tofino Airport Grief Point Powell River Airport Sechelt Point Atkinson Sand Heads Lightstation Vancouver Harbour Vancouver Int'l Airport West Vancouver Port Alberni Howe Sound - Pam Rocks Squamish Airport